Pagrindinis puslapis
METAR-TAF:

METAR-TAF

Oro uostai :

Juigalpa, Nikaragva

platuma: 12-06N, ilguma: 085-22W, Aukštis: 90 m

Dabartinis oras

Ataskaita buvo paskelbta 23 minutes, ne 13:00 UTC
Vėjas 4 kt iš Rytų
Temperatūra 25°C
Drėgmė 74%
Slėgis 1014 hPa
Matomumas 10 km arba daugiau
Išsisklaidę debesys ne aukštis 2000 ft
Išsisklaidę debesys ne aukštis 8000 ft

METAR: MNJU 281300Z 09004KT 9999 SCT020 SCT080 25/20 Q1014

Laikas: 07:23 (13:23 UTC)


TAF: trūkstamas

Orai ataskaitas ir orų prognozės (METAR, TAF).

turimą stotys yra geltonos ir raudonos taškus žemėlapyje.

Perkelti pele per norėdami pamatyti stoties vardą.

Tada spustelėkite, norėdami matyti oro stebėjimo ir prognozės.

Norėdami pakeisti žemėlapį: spustelėkite ant žalios mygtukų su juodo kryžiaus žemyn,; žalią mygtuką su brūkšneliu, jei norite nutolinti; arba žalių rodyklių gretimoms žemėlapius.


METAR-TAF: